Flight Track Log - Related Links

Times and Time Zones

All times are in EDT time to prevent confusion due to time zone crossing. See the DLH3197 flight status page for this flight to view local times or setup timezone preferences in your user account.

Time Position Orientation Groundspeed Altitude Reporting Facility
EDT Latitude Longitude Course Direction KTS MPH feet Rate Location/Type
Sat 03:54:00 AM 38.4808 14.9726 356° North  Level Estimated
Sat 03:55:00 AM 38.5934 14.9620 356° North  Level Estimated
Sat 03:56:00 AM 38.7061 14.9514 356° North  Level Estimated
Sat 03:57:00 AM 38.8187 14.9408 356° North  Level Estimated
Sat 03:58:00 AM 38.9314 14.9301 356° North  Level Estimated
Sat 03:59:00 AM 39.0441 14.9193 356° North  Level Estimated
Sat 04:00:00 AM 39.1567 14.9086 356° North  Level Estimated
Sat 04:01:00 AM 39.2694 14.8978 356° North  Level Estimated
Sat 04:02:00 AM 39.3820 14.8870 356° North  Level Estimated
Sat 04:03:00 AM 39.4947 14.8761 356° North  Level Estimated
Sat 04:04:00 AM 39.6073 14.8652 356° North  Level Estimated
Sat 04:05:00 AM 39.7200 14.8543 356° North  Level Estimated
Sat 04:06:00 AM 39.8326 14.8433 356° North  Level Estimated
Sat 04:07:00 AM 39.9453 14.8323 356° North  Level Estimated
Sat 04:08:00 AM 40.0579 14.8213 356° North  Level Estimated
Sat 04:09:00 AM 40.1706 14.8102 356° North  Level Estimated
Sat 04:10:00 AM 40.2832 14.7991 356° North  Level Estimated
Sat 04:11:00 AM 40.3959 14.7880 356° North  Level Estimated
Sat 04:12:00 AM 40.5085 14.7768 356° North  Level Estimated
Sat 04:13:00 AM 40.6212 14.7656 356° North  Level Estimated
Sat 04:14:00 AM 40.7338 14.7543 356° North  Level Estimated
Sat 04:15:00 AM 40.8464 14.7430 356° North  Level Estimated
Sat 04:16:00 AM 40.9591 14.7317 356° North  Level Estimated
Sat 04:17:00 AM 41.0717 14.7203 356° North  Level Estimated
Sat 04:18:00 AM 41.1843 14.7089 356° North  Level Estimated
Sat 04:19:00 AM 41.2970 14.6974 356° North  Level Estimated
Sat 04:20:00 AM 41.4096 14.6859 356° North  Level Estimated
Sat 04:21:00 AM 41.5223 14.6744 356° North  Level Estimated
Sat 04:22:00 AM 41.6349 14.6628 356° North  Level Estimated
Sat 04:23:00 AM 41.7475 14.6512 356° North  Level Estimated
Sat 04:24:00 AM 41.8601 14.6396 356° North  Level Estimated
Sat 04:25:00 AM 41.9728 14.6279 356° North  Level Estimated
Sat 04:26:00 AM 42.0854 14.6161 356° North  Level Estimated
Sat 04:27:00 AM 42.1980 14.6044 356° North  Level Estimated
Sat 04:28:00 AM 42.3106 14.5925 356° North  Level Estimated
Sat 04:29:00 AM 42.4233 14.5807 356° North  Level Estimated
Sat 04:30:00 AM 42.5359 14.5688 356° North  Level Estimated
Sat 04:31:00 AM 42.6485 14.5568 356° North  Level Estimated
Sat 04:32:00 AM 42.7611 14.5448 356° North  Level Estimated
Sat 04:33:00 AM 42.8737 14.5328 356° North  Level Estimated
Sat 04:34:00 AM 42.9864 14.5207 356° North  Level Estimated
Sat 04:35:00 AM 43.0990 14.5086 356° North  Level Estimated
Sat 04:36:00 AM 43.2116 14.4964 355° North  Level Estimated
Sat 04:37:00 AM 43.3242 14.4842 355° North  Level Estimated
Sat 04:38:00 AM 43.4368 14.4719 355° North  Level Estimated
Sat 04:39:00 AM 43.5494 14.4596 355° North  Level Estimated
Sat 04:40:00 AM 43.6620 14.4473 355° North  Level Estimated
Sat 04:41:00 AM 43.7747 14.4349 355° North  Level Estimated
Sat 04:42:00 AM 43.8873 14.4225 355° North  Level Estimated
Sat 04:43:00 AM 43.9999 14.4100 355° North  Level Estimated
Sat 04:44:00 AM 44.1125 14.3974 355° North  Level Estimated
Sat 04:45:00 AM 44.2251 14.3848 355° North  Level Estimated
Sat 04:46:00 AM 44.3377 14.3722 355° North  Level Estimated
Sat 04:47:00 AM 44.4503 14.3595 355° North  Level Estimated
Sat 04:48:00 AM 44.5629 14.3468 355° North  Level Estimated
Sat 04:49:00 AM 44.6755 14.3340 355° North  Level Estimated
Sat 04:50:00 AM 44.7881 14.3212 355° North  Level Estimated
Sat 04:51:00 AM 44.9007 14.3083 355° North  Level Estimated
Sat 04:52:00 AM 45.0132 14.2954 355° North  Level Estimated
Sat 04:53:00 AM 45.1258 14.2824 355° North  Level Estimated
Sat 04:54:00 AM 45.2384 14.2693 355° North  Level Estimated
Sat 04:55:00 AM 45.3510 14.2563 355° North  Level Estimated
Sat 04:56:00 AM 45.4636 14.2431 355° North  Level Estimated
Sat 04:57:00 AM 45.5762 14.2299 355° North  Level Estimated
Sat 04:58:00 AM 45.6888 14.2167 355° North  Level Estimated
Sat 04:59:00 AM 45.8014 14.2034 355° North  Level Estimated
Sat 05:00:00 AM 45.9139 14.1900 355° North  Level Estimated
Sat 05:01:00 AM 46.0265 14.1766 355° North  Level Estimated
Sat 05:02:00 AM 46.1391 14.1631 355° North  Level Estimated
Sat 05:03:00 AM 46.2517 14.1496 355° North  Level Estimated
Sat 05:04:00 AM 46.3643 14.1361 355° North  Level Estimated
Sat 05:05:00 AM 46.4768 14.1224 355° North  Level Estimated
Sat 05:06:00 AM 46.5894 14.1088 355° North  Level Estimated
Sat 05:07:00 AM 46.7020 14.0950 355° North  Level Estimated
Sat 05:08:00 AM 46.8145 14.0812 355° North  Level Estimated
Sat 05:09:00 AM 46.9271 14.0674 355° North  Level Estimated
Sat 05:10:00 AM 47.0397 14.0534 355° North  Level Estimated
Sat 05:11:00 AM 47.1522 14.0395 355° North  Level Estimated
Sat 05:12:00 AM 47.2648 14.0254 355° North  Level Estimated
Sat 05:13:00 AM 47.3773 14.0113 355° North  Level Estimated
Sat 05:14:00 AM 47.4899 13.9972 355° North  Level Estimated
Sat 05:15:00 AM 47.6025 13.9830 355° North  Level Estimated
Sat 05:16:00 AM 47.7150 13.9687 355° North  Level Estimated
Sat 05:17:00 AM 47.8276 13.9544 355° North  Level Estimated
Sat 05:18:00 AM 47.9401 13.9400 355° North  Level Estimated
Sat 05:19:00 AM 48.0527 13.9255 355° North  Level Estimated
Sat 05:20:00 AM 48.1652 13.9110 355° North  Level Estimated
Sat 05:21:00 AM 48.2840 13.8956 355° North  Level Estimated
Sat 05:22:00 AM 48.4027 13.8801 355° North  Level Estimated
Sat 05:23:00 AM 48.5215 13.8646 355° North  Level Estimated
Sat 05:24:00 AM 48.6402 13.8490 355° North  Level Estimated
Sat 05:25:00 AM 48.7589 13.8333 355° North  Level Estimated
Sat 05:26:00 AM 48.8777 13.8175 355° North  Level Estimated
Sat 05:27:00 AM 48.9964 13.8017 355° North  Level Estimated
Sat 05:28:00 AM 49.1151 13.7858 355° North  Level Estimated
Sat 05:29:00 AM 49.2339 13.7698 355° North  Level Estimated
Sat 05:30:00 AM 49.3526 13.7537 355° North  Level Estimated
Sat 05:31:00 AM 49.4713 13.7376 355° North  Level Estimated
Sat 05:32:00 AM 49.5900 13.7213 355° North  Level Estimated
Sat 05:33:00 AM 49.7088 13.7050 355° North  Level Estimated
Sat 05:34:00 AM 49.8275 13.6887 355° North  Level Estimated
Sat 05:35:00 AM 49.9462 13.6722 355° North  Level Estimated
Sat 05:36:00 AM 50.0649 13.6557 355° North  Level Estimated
Sat 05:37:00 AM 50.1836 13.6390 355° North  Level Estimated
Sat 05:38:00 AM 50.3023 13.6223 355° North  Level Estimated
Sat 05:39:00 AM 50.4211 13.6055 355° North  Level Estimated
Sat 05:40:00 AM 50.5398 13.5887 355° North  Level Estimated
Sat 05:41:00 AM 50.6585 13.5717 355° North  Level Estimated
Sat 05:42:00 AM 50.7772 13.5547 355° North  Level Estimated
Sat 05:43:00 AM 50.8959 13.5375 355° North  Level Estimated
Sat 05:44:00 AM 51.0146 13.5203 355° North  Level Estimated
Sat 05:45:00 AM 51.1333 13.5030 355° North  Level Estimated
Sat 05:46:00 AM 51.2519 13.4856 355° North  Level Estimated
Sat 05:47:00 AM 51.3706 13.4681 355° North  Level Estimated
Sat 05:48:00 AM 51.4893 13.4505 355° North  Level Estimated
Sat 05:49:00 AM 51.6080 13.4328 355° North  Level Estimated
Sat 05:50:00 AM 51.7267 13.4151 355° North  Level Estimated
Sat 05:51:00 AM 51.8454 13.3972 355° North  Level Estimated
Sat 05:52:00 AM 51.9640 13.3793 355° North  Level Estimated
Sat 05:53:00 AM 52.0827 13.3612 355° North  Level Estimated
Sat 05:54:00 AM 52.2014 13.3431 355° North  Level Estimated
Sat 05:55:00 AM 52.3200 13.3249 355° North  Level Estimated
Sat 05:56:00 AM 52.4387 13.3065 355° North  Level Estimated
Sat 05:57:00 AM 52.5574 13.2881 355° North  Level Estimated
Sat 05:58:00 AM 52.5597 13.2877 355° North  Level Estimated
Sat 05:59:00 AM 52.5597 13.2877 171° South  Level Estimated
Sat 06:00:00 AM 52.5597 13.2877 171° South  Level Estimated
Sat 06:01:00 AM 52.5597 13.2877 171° South  Level Estimated
Sat 06:02:00 AM 52.5597 13.2877 171° South  Level Estimated
Sat 06:03:00 AM 52.5597 13.2877 171° South  Level Estimated

Login

Don't have an account? Register now (free) for customized features, flight alerts, and more!